createdAt,value
2022-09-28T00:00:09.812Z,68.31
2022-09-28T00:00:21.764Z,68.08
2022-09-28T00:00:33.665Z,68.19
2022-09-28T00:00:47.525Z,68.02
2022-09-28T00:00:59.714Z,67.78
2022-09-28T00:01:25.649Z,68.05
2022-09-28T00:01:37.680Z,68.22
2022-09-28T00:01:49.697Z,68.03
2022-09-28T00:02:01.719Z,67.88
2022-09-28T00:02:13.753Z,67.77
2022-09-28T00:02:26.494Z,68.48
2022-09-28T00:02:39.080Z,68.22
2022-09-28T00:02:51.320Z,67.93
2022-09-28T00:03:03.374Z,67.73
2022-09-28T00:03:15.281Z,68.03
2022-09-28T00:03:30.995Z,67.94
2022-09-28T00:03:43.501Z,68.11
2022-09-28T00:03:59.807Z,67.90
2022-09-28T00:04:12.533Z,68.13
2022-09-28T00:04:24.565Z,68.15
2022-09-28T00:04:36.475Z,68.00
2022-09-28T00:04:48.438Z,67.96
2022-09-28T00:05:00.441Z,67.71
2022-09-28T00:05:12.623Z,67.75
2022-09-28T00:05:28.436Z,67.54
2022-09-28T00:05:40.326Z,67.75
2022-09-28T00:05:52.200Z,67.83
2022-09-28T00:06:07.601Z,67.49
2022-09-28T00:06:22.198Z,67.74
2022-09-28T00:06:34.096Z,67.84
2022-09-28T00:06:50.121Z,67.95
2022-09-28T00:07:02.088Z,68.29
2022-09-28T00:07:13.968Z,68.10
2022-09-28T00:07:26.196Z,68.35
2022-09-28T00:07:38.452Z,68.39
2022-09-28T00:07:50.420Z,68.27
2022-09-28T00:08:02.394Z,68.46
2022-09-28T00:08:14.436Z,68.41
2022-09-28T00:08:26.309Z,68.42
2022-09-28T00:08:39.666Z,67.72
2022-09-28T00:08:51.856Z,67.72
2022-09-28T00:09:04.271Z,67.26
2022-09-28T00:09:17.343Z,66.92
2022-09-28T00:09:29.369Z,67.01
2022-09-28T00:09:41.239Z,66.85
2022-09-28T00:09:53.162Z,67.14
2022-09-28T00:10:05.528Z,67.25
2022-09-28T00:10:17.565Z,67.60
2022-09-28T00:10:29.530Z,67.50
2022-09-28T00:10:43.204Z,67.44
2022-09-28T00:10:56.089Z,67.85
2022-09-28T00:11:12.210Z,68.00
2022-09-28T00:11:28.012Z,67.93
2022-09-28T00:11:40.049Z,67.52
2022-09-28T00:11:53.837Z,68.03
2022-09-28T00:12:06.644Z,68.11
2022-09-28T00:12:18.546Z,67.89
2022-09-28T00:12:31.421Z,68.01
2022-09-28T00:12:43.346Z,68.47
2022-09-28T00:12:55.468Z,68.38
2022-09-28T00:13:08.122Z,68.49
2022-09-28T00:13:19.977Z,68.66
2022-09-28T00:13:33.142Z,69.08
2022-09-28T00:13:48.246Z,68.80
2022-09-28T00:14:03.474Z,68.82
2022-09-28T00:14:15.494Z,69.08
2022-09-28T00:14:28.156Z,68.49
2022-09-28T00:14:44.573Z,69.07
2022-09-28T00:14:56.475Z,68.74
2022-09-28T00:15:08.689Z,68.65
2022-09-28T00:15:21.688Z,68.92
2022-09-28T00:15:33.869Z,68.82
2022-09-28T00:15:45.791Z,68.87
2022-09-28T00:16:01.726Z,68.92
2022-09-28T00:16:16.849Z,68.65
2022-09-28T00:16:34.375Z,69.05
2022-09-28T00:16:46.884Z,68.94
2022-09-28T00:16:58.856Z,69.08
2022-09-28T00:17:12.219Z,69.06
2022-09-28T00:17:26.371Z,69.40
2022-09-28T00:17:38.300Z,69.09
2022-09-28T00:17:50.458Z,69.15
2022-09-28T00:18:02.351Z,69.22
2022-09-28T00:18:14.273Z,69.33
2022-09-28T00:18:26.763Z,69.06
2022-09-28T00:18:38.672Z,68.89
2022-09-28T00:18:51.340Z,69.14
2022-09-28T00:19:04.777Z,69.01
2022-09-28T00:19:16.796Z,68.67
2022-09-28T00:19:28.844Z,68.63
2022-09-28T00:19:44.746Z,68.64
2022-09-28T00:19:57.939Z,69.31
2022-09-28T00:20:10.447Z,69.23
2022-09-28T00:20:22.691Z,69.48
2022-09-28T00:20:34.614Z,69.46
2022-09-28T00:20:46.532Z,69.57
2022-09-28T00:21:12.788Z,69.57
2022-09-28T00:21:28.213Z,69.98
2022-09-28T00:21:41.728Z,69.95
2022-09-28T00:21:53.637Z,69.66
2022-09-28T00:22:06.445Z,69.79
2022-09-28T00:22:18.519Z,69.98
2022-09-28T00:22:30.382Z,69.83
2022-09-28T00:22:42.282Z,70.32
2022-09-28T00:22:54.158Z,70.08
2022-09-28T00:23:06.041Z,70.07
2022-09-28T00:23:17.915Z,70.10
2022-09-28T00:23:29.936Z,70.43
2022-09-28T00:24:01.609Z,70.05
2022-09-28T00:24:17.715Z,70.14
2022-09-28T00:24:30.397Z,70.27
2022-09-28T00:24:42.273Z,70.05
2022-09-28T00:24:54.182Z,70.02
2022-09-28T00:25:07.091Z,70.40
2022-09-28T00:25:21.865Z,70.74
2022-09-28T00:25:33.759Z,70.74
2022-09-28T00:25:45.631Z,70.63
2022-09-28T00:26:04.972Z,70.46
2022-09-28T00:26:16.840Z,70.74
2022-09-28T00:26:30.747Z,70.95
2022-09-28T00:26:46.234Z,71.20
2022-09-28T00:27:01.298Z,70.94
2022-09-28T00:27:13.244Z,70.83
2022-09-28T00:27:25.149Z,70.54
2022-09-28T00:27:37.115Z,70.68
2022-09-28T00:27:51.684Z,70.59
2022-09-28T00:28:03.576Z,70.61
2022-09-28T00:28:15.431Z,70.49
2022-09-28T00:28:27.359Z,70.32
2022-09-28T00:28:39.227Z,70.04
2022-09-28T00:28:55.414Z,69.86
2022-09-28T00:29:12.760Z,69.85
2022-09-28T00:29:28.803Z,69.57
2022-09-28T00:29:43.579Z,69.44
2022-09-28T00:29:55.830Z,69.92
2022-09-28T00:30:08.583Z,70.04
2022-09-28T00:30:20.544Z,70.04
2022-09-28T00:30:32.436Z,70.15
2022-09-28T00:30:44.427Z,70.41
2022-09-28T00:30:56.472Z,70.38
2022-09-28T00:31:08.476Z,70.69
2022-09-28T00:31:21.072Z,70.88
2022-09-28T00:31:34.228Z,71.11
2022-09-28T00:31:46.713Z,71.64
2022-09-28T00:32:07.291Z,70.35
2022-09-28T00:32:21.439Z,70.45
2022-09-28T00:32:33.594Z,70.13
2022-09-28T00:32:45.469Z,70.04
2022-09-28T00:32:57.475Z,70.30
2022-09-28T00:33:09.428Z,70.38
2022-09-28T00:33:21.323Z,70.29
2022-09-28T00:33:33.243Z,70.44
2022-09-28T00:33:45.230Z,70.39
2022-09-28T00:33:58.109Z,70.36
2022-09-28T00:34:10.197Z,70.81
2022-09-28T00:34:22.279Z,70.53
2022-09-28T00:34:42.363Z,71.04
2022-09-28T00:34:55.043Z,71.04
2022-09-28T00:35:07.388Z,71.57
2022-09-28T00:35:19.269Z,71.43
2022-09-28T00:35:31.326Z,71.67
2022-09-28T00:35:43.513Z,71.86
2022-09-28T00:36:01.621Z,71.97
2022-09-28T00:36:13.544Z,72.62
2022-09-28T00:36:29.434Z,72.58
2022-09-28T00:36:45.474Z,72.24
2022-09-28T00:36:58.187Z,72.47
2022-09-28T00:37:10.235Z,72.29
2022-09-28T00:37:22.498Z,72.56
2022-09-28T00:37:34.478Z,72.39
2022-09-28T00:37:48.868Z,72.60
2022-09-28T00:38:02.243Z,72.14
2022-09-28T00:38:16.632Z,72.32
2022-09-28T00:38:30.175Z,72.57
2022-09-28T00:38:42.784Z,72.63
2022-09-28T00:38:58.916Z,72.63
2022-09-28T00:39:11.711Z,72.63
2022-09-28T00:39:24.032Z,72.57
2022-09-28T00:39:38.218Z,71.89
2022-09-28T00:39:50.208Z,72.03
2022-09-28T00:40:02.092Z,71.86
2022-09-28T00:40:14.417Z,71.38
2022-09-28T00:40:26.488Z,72.06
2022-09-28T00:40:38.545Z,71.96
2022-09-28T00:40:50.721Z,72.10
2022-09-28T00:41:02.643Z,72.33
2022-09-28T00:41:15.260Z,72.33
2022-09-28T00:41:28.265Z,72.39
2022-09-28T00:41:40.354Z,71.94
2022-09-28T00:41:52.649Z,72.32
2022-09-28T00:42:12.617Z,71.85
2022-09-28T00:42:26.780Z,71.43
2022-09-28T00:42:42.758Z,71.51
2022-09-28T00:42:54.689Z,71.11
2022-09-28T00:43:20.467Z,71.34
2022-09-28T00:43:32.417Z,72.06
2022-09-28T00:43:44.527Z,71.63
2022-09-28T00:44:24.269Z,71.86
2022-09-28T00:44:40.719Z,72.64
2022-09-28T00:44:54.038Z,72.91
2022-09-28T00:45:08.613Z,73.11
2022-09-28T00:45:25.521Z,73.34
2022-09-28T00:45:37.719Z,73.43
2022-09-28T00:46:10.262Z,73.07
2022-09-28T00:46:28.824Z,73.24
2022-09-28T00:46:41.353Z,73.06
2022-09-28T00:46:55.917Z,73.30
2022-09-28T00:47:24.449Z,73.35
2022-09-28T00:47:49.451Z,73.63
2022-09-28T00:48:01.410Z,73.73
2022-09-28T00:48:13.305Z,73.54
2022-09-28T00:48:29.244Z,73.49
2022-09-28T00:48:51.019Z,73.69
2022-09-28T00:49:09.134Z,74.05
2022-09-28T00:49:31.269Z,73.76
2022-09-28T00:49:55.092Z,74.09
2022-09-28T00:50:10.974Z,73.86
2022-09-28T00:50:28.837Z,73.66
2022-09-28T00:50:40.913Z,73.87
2022-09-28T00:50:52.992Z,74.09
2022-09-28T00:51:09.346Z,73.85
2022-09-28T00:51:23.419Z,73.59
2022-09-28T00:51:36.744Z,73.67
2022-09-28T00:51:48.873Z,73.77
2022-09-28T00:52:02.732Z,73.71
2022-09-28T00:52:23.037Z,73.52
2022-09-28T00:52:58.832Z,74.20
2022-09-28T00:53:21.210Z,74.53
2022-09-28T00:53:37.856Z,74.43
2022-09-28T00:53:50.790Z,74.22
2022-09-28T00:54:04.653Z,74.30
2022-09-28T00:54:16.879Z,73.91
2022-09-28T00:54:28.988Z,74.53
2022-09-28T00:54:46.764Z,74.21
2022-09-28T00:55:02.282Z,73.88
2022-09-28T00:55:18.146Z,74.21
2022-09-28T00:55:44.757Z,74.33
2022-09-28T00:56:03.662Z,73.92
2022-09-28T00:56:19.542Z,73.68
2022-09-28T00:56:35.055Z,73.82
2022-09-28T00:56:48.364Z,74.04
2022-09-28T00:57:02.256Z,74.40
2022-09-28T00:57:17.536Z,74.59
2022-09-28T00:57:30.753Z,74.45
2022-09-28T00:57:47.424Z,74.45
2022-09-28T00:58:03.704Z,74.34
2022-09-28T00:58:23.174Z,74.48
2022-09-28T00:58:41.341Z,73.95
2022-09-28T00:58:54.629Z,74.43
2022-09-28T00:59:08.559Z,74.09
2022-09-28T00:59:24.294Z,74.71
2022-09-28T00:59:36.333Z,74.63
2022-09-28T00:59:49.537Z,74.56
2022-09-28T01:00:03.271Z,74.74
2022-09-28T01:00:15.722Z,74.70
2022-09-28T01:00:27.704Z,74.49
2022-09-28T01:00:42.857Z,74.80
2022-09-28T01:00:59.454Z,74.94
2022-09-28T01:01:12.587Z,75.10
2022-09-28T01:01:24.693Z,75.04
2022-09-28T01:01:37.335Z,75.01
2022-09-28T01:01:49.571Z,75.38
2022-09-28T01:02:02.570Z,74.90
2022-09-28T01:02:14.591Z,75.05
2022-09-28T01:02:26.640Z,74.70
2022-09-28T01:02:38.695Z,74.72
2022-09-28T01:02:51.287Z,75.14
2022-09-28T01:03:03.886Z,75.03
2022-09-28T01:03:16.800Z,75.22
2022-09-28T01:03:28.948Z,75.23
2022-09-28T01:03:45.175Z,75.16
2022-09-28T01:04:02.625Z,75.32
2022-09-28T01:04:14.758Z,75.19
2022-09-28T01:04:29.835Z,74.99
2022-09-28T01:04:42.370Z,75.58
2022-09-28T01:04:55.568Z,75.25
2022-09-28T01:05:10.289Z,75.70
2022-09-28T01:05:24.156Z,75.29
2022-09-28T01:05:37.204Z,75.19
2022-09-28T01:05:51.748Z,75.30
2022-09-28T01:06:06.504Z,75.45
2022-09-28T01:06:23.582Z,75.45
2022-09-28T01:06:38.518Z,75.17
2022-09-28T01:06:51.212Z,75.46
2022-09-28T01:07:03.097Z,75.51
2022-09-28T01:07:17.052Z,75.46
2022-09-28T01:07:29.265Z,74.76
2022-09-28T01:07:43.925Z,74.44
2022-09-28T01:07:57.519Z,74.12
2022-09-28T01:08:11.212Z,74.48
2022-09-28T01:08:27.621Z,74.73
2022-09-28T01:08:39.952Z,74.57
2022-09-28T01:08:54.322Z,74.37
2022-09-28T01:09:10.395Z,74.63
2022-09-28T01:09:25.000Z,74.39
2022-09-28T01:09:41.444Z,74.55
2022-09-28T01:09:54.098Z,74.22
2022-09-28T01:10:07.229Z,74.55
2022-09-28T01:10:19.128Z,74.89
2022-09-28T01:10:31.420Z,75.43
2022-09-28T01:10:43.696Z,75.28
2022-09-28T01:10:59.420Z,75.40
2022-09-28T01:11:11.474Z,75.62
2022-09-28T01:11:24.327Z,75.71
2022-09-28T01:11:38.703Z,75.10
2022-09-28T01:11:50.621Z,75.51
2022-09-28T01:12:02.797Z,75.27
2022-09-28T01:12:14.719Z,75.74
2022-09-28T01:12:26.735Z,75.63
2022-09-28T01:12:38.694Z,75.72
2022-09-28T01:12:50.834Z,75.50
2022-09-28T01:13:02.842Z,75.41
2022-09-28T01:13:17.049Z,75.50
2022-09-28T01:13:31.472Z,75.53
2022-09-28T01:13:44.592Z,75.38
2022-09-28T01:13:57.863Z,74.96
2022-09-28T01:14:13.958Z,75.21
2022-09-28T01:14:28.640Z,75.13
2022-09-28T01:14:41.254Z,74.96
2022-09-28T01:14:53.235Z,75.11
2022-09-28T01:15:06.192Z,75.30
2022-09-28T01:15:24.644Z,75.09
2022-09-28T01:15:55.059Z,74.54
2022-09-28T01:16:14.679Z,74.79
2022-09-28T01:16:41.826Z,74.59
2022-09-28T01:17:05.280Z,74.67
2022-09-28T01:17:25.359Z,74.57
2022-09-28T01:18:09.636Z,74.88
2022-09-28T01:18:43.517Z,75.29
2022-09-28T01:19:10.823Z,75.34
2022-09-28T01:19:58.198Z,75.29
2022-09-28T01:20:28.859Z,76.03
2022-09-28T01:20:53.996Z,75.80
2022-09-28T01:21:20.670Z,75.99
2022-09-28T01:21:42.910Z,76.36
2022-09-28T01:22:19.124Z,76.12
2022-09-28T01:23:03.032Z,76.24
2022-09-28T01:23:36.672Z,76.01
2022-09-28T01:24:03.295Z,76.26
2022-09-28T01:24:34.477Z,76.14
2022-09-28T01:24:48.285Z,75.85
2022-09-28T01:25:00.179Z,76.22
2022-09-28T01:25:14.328Z,76.37
2022-09-28T01:25:38.279Z,76.67
2022-09-28T01:25:55.279Z,76.79
2022-09-28T01:26:25.268Z,76.94
2022-09-28T01:26:48.974Z,76.93
2022-09-28T01:27:10.872Z,76.42
2022-09-28T01:27:54.592Z,77.13
2022-09-28T01:28:18.125Z,77.23
2022-09-28T01:28:31.462Z,77.34
2022-09-28T01:28:44.251Z,77.57
2022-09-28T01:29:06.005Z,77.82
2022-09-28T01:29:20.688Z,78.11
2022-09-28T01:29:39.423Z,77.66
2022-09-28T01:30:04.765Z,77.71
2022-09-28T01:30:20.039Z,77.37
2022-09-28T01:30:41.969Z,77.30
2022-09-28T01:31:11.097Z,77.54
2022-09-28T01:31:30.370Z,77.34
2022-09-28T01:31:49.595Z,77.41
2022-09-28T01:32:25.777Z,77.83
2022-09-28T01:32:43.215Z,77.59
2022-09-28T01:33:07.069Z,77.83
2022-09-28T01:33:23.533Z,77.72
2022-09-28T01:33:55.662Z,77.65
2022-09-28T01:34:16.455Z,78.17
2022-09-28T01:34:36.746Z,78.00
2022-09-28T01:35:15.226Z,77.50
2022-09-28T01:35:31.250Z,77.77
2022-09-28T01:35:47.449Z,77.69
2022-09-28T01:36:11.211Z,77.67
2022-09-28T01:36:36.734Z,77.86
2022-09-28T01:36:53.716Z,77.83
2022-09-28T01:37:09.506Z,77.86
2022-09-28T01:37:26.351Z,77.96
2022-09-28T01:37:52.746Z,77.86
2022-09-28T01:38:10.329Z,77.59
2022-09-28T01:38:29.561Z,77.10
2022-09-28T01:38:52.064Z,77.24
2022-09-28T01:39:15.271Z,77.63
2022-09-28T01:39:47.002Z,77.36
2022-09-28T01:40:03.899Z,77.46
2022-09-28T01:40:17.266Z,76.91
2022-09-28T01:40:32.117Z,76.93
2022-09-28T01:40:47.724Z,77.17
2022-09-28T01:41:00.572Z,77.09
2022-09-28T01:41:13.655Z,77.32
2022-09-28T01:41:29.207Z,77.34
2022-09-28T01:41:43.861Z,77.36
2022-09-28T01:41:59.887Z,77.68
2022-09-28T01:42:19.867Z,77.25
2022-09-28T01:42:36.107Z,78.02
2022-09-28T01:42:54.178Z,78.14
2022-09-28T01:43:11.400Z,77.99
2022-09-28T01:43:26.741Z,78.48
2022-09-28T01:43:42.696Z,78.37
2022-09-28T01:44:02.872Z,78.29
2022-09-28T01:44:18.742Z,77.91
2022-09-28T01:44:39.651Z,77.87
2022-09-28T01:44:56.817Z,77.98
2022-09-28T01:45:21.949Z,78.02
2022-09-28T01:45:42.141Z,78.36
2022-09-28T01:46:23.358Z,78.80
2022-09-28T01:46:42.085Z,78.89
2022-09-28T01:46:54.201Z,79.20
2022-09-28T01:47:11.940Z,79.20
2022-09-28T01:47:26.340Z,79.16
2022-09-28T01:47:39.960Z,79.35
2022-09-28T01:47:57.880Z,79.39
2022-09-28T01:48:12.944Z,79.45
2022-09-28T01:48:31.212Z,79.33
2022-09-28T01:48:58.075Z,79.00
2022-09-28T01:49:15.886Z,78.94
2022-09-28T01:49:34.233Z,79.47
2022-09-28T01:49:50.560Z,79.43
2022-09-28T01:50:12.296Z,79.67
2022-09-28T01:50:28.427Z,80.05
2022-09-28T01:50:44.115Z,79.88
2022-09-28T01:51:00.369Z,80.15
2022-09-28T01:51:25.759Z,80.42
2022-09-28T01:51:42.374Z,80.79
2022-09-28T01:52:00.791Z,80.76
2022-09-28T01:52:24.435Z,80.78
2022-09-28T01:52:49.356Z,80.83
2022-09-28T01:53:10.948Z,80.91
2022-09-28T01:53:27.028Z,80.92
2022-09-28T01:53:42.973Z,81.23
2022-09-28T01:54:00.355Z,81.50
2022-09-28T01:54:14.778Z,81.51
2022-09-28T01:54:31.675Z,81.47
2022-09-28T01:54:53.449Z,81.52
2022-09-28T01:55:21.137Z,81.50
2022-09-28T01:55:37.274Z,81.53
2022-09-28T01:55:55.324Z,81.58
2022-09-28T01:56:19.528Z,81.38
2022-09-28T01:56:39.053Z,81.67
2022-09-28T01:57:10.903Z,81.55
2022-09-28T01:57:28.342Z,81.31
2022-09-28T01:57:47.309Z,81.43
2022-09-28T01:58:08.803Z,81.34
2022-09-28T01:58:47.015Z,81.28
2022-09-28T01:59:12.296Z,81.32
2022-09-28T01:59:28.399Z,81.05
2022-09-28T01:59:50.982Z,80.91
2022-09-28T02:00:09.094Z,81.28
2022-09-28T02:00:24.221Z,80.86
2022-09-28T02:00:41.751Z,81.32
2022-09-28T02:00:59.754Z,81.25
2022-09-28T02:01:21.646Z,81.26
2022-09-28T02:01:41.796Z,80.89
2022-09-28T02:01:57.358Z,80.60
2022-09-28T02:02:21.589Z,80.96
2022-09-28T02:02:41.816Z,80.81
2022-09-28T02:03:08.048Z,81.25
2022-09-28T02:03:26.230Z,81.46
2022-09-28T02:03:53.718Z,81.19
2022-09-28T02:04:13.955Z,81.21
2022-09-28T02:04:45.487Z,80.99
2022-09-28T02:05:00.461Z,81.34
2022-09-28T02:05:17.301Z,80.90
2022-09-28T02:06:04.479Z,80.58
2022-09-28T02:06:26.582Z,80.92
2022-09-28T02:06:46.119Z,81.06
2022-09-28T02:07:01.411Z,80.83
2022-09-28T02:07:53.783Z,80.53
2022-09-28T02:08:12.654Z,80.59
2022-09-28T02:08:42.910Z,80.60
2022-09-28T02:09:00.321Z,80.42
2022-09-28T02:09:18.934Z,80.83
2022-09-28T02:09:38.939Z,80.68
2022-09-28T02:09:57.091Z,80.57
2022-09-28T02:10:33.980Z,80.70
2022-09-28T02:10:55.956Z,80.99
2022-09-28T02:11:15.751Z,81.10
2022-09-28T02:11:27.819Z,81.23
2022-09-28T02:11:47.415Z,81.26
2022-09-28T02:12:03.683Z,80.86
2022-09-28T02:12:39.070Z,80.95
2022-09-28T02:12:51.043Z,80.90
2022-09-28T02:13:10.995Z,81.26
2022-09-28T02:13:55.379Z,81.23
2022-09-28T02:14:11.579Z,81.05
2022-09-28T02:14:25.389Z,81.03
2022-09-28T02:14:39.418Z,81.32
2022-09-28T02:14:55.175Z,81.42
2022-09-28T02:15:20.297Z,81.23
2022-09-28T02:15:54.419Z,81.08
2022-09-28T02:16:12.546Z,80.57
2022-09-28T02:16:45.144Z,80.43
2022-09-28T02:16:58.147Z,80.77
2022-09-28T02:17:10.200Z,80.39
2022-09-28T02:17:22.696Z,80.38
2022-09-28T02:17:35.238Z,80.56
2022-09-28T02:17:47.707Z,80.64
2022-09-28T02:17:59.774Z,80.52
2022-09-28T02:18:11.914Z,80.47
2022-09-28T02:18:24.664Z,81.04
2022-09-28T02:18:37.104Z,80.82
2022-09-28T02:18:50.357Z,80.75
2022-09-28T02:19:03.912Z,80.85
2022-09-28T02:19:25.922Z,80.41
2022-09-28T02:19:39.913Z,80.45
2022-09-28T02:19:52.031Z,80.35
2022-09-28T02:20:04.849Z,80.24
2022-09-28T02:20:17.335Z,80.32
2022-09-28T02:20:32.577Z,80.33
2022-09-28T02:20:51.986Z,80.36
2022-09-28T02:21:11.609Z,80.75
2022-09-28T02:21:46.423Z,80.74
2022-09-28T02:22:25.780Z,81.28
2022-09-28T02:22:58.589Z,81.17
2022-09-28T02:23:10.892Z,81.18
2022-09-28T02:23:26.469Z,81.59
2022-09-28T02:23:46.009Z,81.34
2022-09-28T02:24:02.673Z,81.63
2022-09-28T02:24:21.711Z,81.66
2022-09-28T02:25:13.626Z,81.47
2022-09-28T02:25:35.342Z,81.60
2022-09-28T02:25:58.302Z,81.73
2022-09-28T02:26:13.871Z,81.72
2022-09-28T02:26:31.427Z,81.65
2022-09-28T02:26:45.910Z,82.12
2022-09-28T02:27:03.283Z,81.69
2022-09-28T02:27:24.182Z,81.85
2022-09-28T02:28:02.550Z,81.90
2022-09-28T02:28:14.535Z,82.14
2022-09-28T02:28:26.441Z,82.22
2022-09-28T02:28:38.351Z,82.11
2022-09-28T02:28:50.355Z,82.04
2022-09-28T02:29:02.350Z,82.39
2022-09-28T02:29:14.438Z,82.22
2022-09-28T02:29:26.495Z,81.97
2022-09-28T02:29:38.480Z,82.32
2022-09-28T02:29:50.479Z,81.77
2022-09-28T02:30:04.919Z,81.88
2022-09-28T02:30:17.928Z,82.08
2022-09-28T02:30:31.180Z,82.07
2022-09-28T02:30:44.564Z,82.26
2022-09-28T02:30:56.462Z,82.28
2022-09-28T02:31:08.389Z,82.18
2022-09-28T02:31:20.522Z,82.60
2022-09-28T02:31:32.721Z,82.45
2022-09-28T02:31:44.783Z,82.36
2022-09-28T02:31:56.817Z,82.64
2022-09-28T02:32:08.869Z,82.62
2022-09-28T02:32:20.820Z,82.35
2022-09-28T02:32:40.072Z,82.56
2022-09-28T02:32:55.739Z,82.98
2022-09-28T02:33:16.610Z,83.14
2022-09-28T02:33:32.021Z,82.92
2022-09-28T02:33:44.940Z,83.03
2022-09-28T02:33:57.985Z,82.97
2022-09-28T02:34:10.071Z,83.08
2022-09-28T02:34:22.055Z,83.08
2022-09-28T02:34:35.243Z,83.30
2022-09-28T02:34:47.241Z,83.26
2022-09-28T02:34:59.473Z,83.10
2022-09-28T02:35:13.777Z,82.97
2022-09-28T02:35:25.789Z,83.37
2022-09-28T02:35:40.952Z,82.89
2022-09-28T02:35:52.840Z,83.24
2022-09-28T02:36:05.391Z,83.10
2022-09-28T02:36:17.426Z,82.61
2022-09-28T02:36:29.864Z,82.48
2022-09-28T02:36:41.999Z,82.57
2022-09-28T02:36:54.147Z,82.87
2022-09-28T02:37:08.688Z,82.98
2022-09-28T02:37:20.948Z,83.00
2022-09-28T02:37:32.829Z,83.42
2022-09-28T02:37:45.558Z,83.33
2022-09-28T02:37:57.615Z,82.80
2022-09-28T02:38:13.819Z,82.92
2022-09-28T02:38:25.736Z,82.93
2022-09-28T02:38:38.054Z,82.96
2022-09-28T02:38:49.952Z,83.55
2022-09-28T02:39:02.295Z,83.21
2022-09-28T02:39:16.831Z,82.83
2022-09-28T02:39:28.881Z,83.30
2022-09-28T02:39:40.815Z,83.05
2022-09-28T02:39:52.974Z,83.66
2022-09-28T02:40:20.234Z,83.49
2022-09-28T02:40:35.016Z,83.80
2022-09-28T02:41:25.163Z,83.48
2022-09-28T02:41:46.112Z,83.65
2022-09-28T02:42:09.781Z,83.35
2022-09-28T02:42:29.190Z,83.65
2022-09-28T02:43:55.311Z,83.13
2022-09-28T02:44:35.129Z,82.96
2022-09-28T02:45:08.081Z,83.45
2022-09-28T02:45:45.839Z,83.42
2022-09-28T02:46:28.245Z,83.28
2022-09-28T02:46:57.404Z,83.97
2022-09-28T02:47:24.114Z,84.27
2022-09-28T02:47:48.332Z,84.10
2022-09-28T02:48:41.250Z,84.27
2022-09-28T02:49:23.534Z,84.14
2022-09-28T02:49:49.387Z,84.74
2022-09-28T02:50:19.436Z,85.31
2022-09-28T02:50:40.042Z,85.43
2022-09-28T02:51:12.284Z,86.00
2022-09-28T02:51:24.815Z,86.00
2022-09-28T02:51:55.227Z,86.78
2022-09-28T02:52:25.655Z,86.58
2022-09-28T02:52:46.340Z,86.35
2022-09-28T02:53:13.757Z,87.14
2022-09-28T02:53:45.628Z,86.74
2022-09-28T02:54:23.571Z,87.49
2022-09-28T02:55:03.153Z,87.21
2022-09-28T02:55:32.976Z,87.91
2022-09-28T02:56:17.167Z,88.02
2022-09-28T02:57:01.264Z,87.91
2022-09-28T02:57:19.569Z,88.13
2022-09-28T02:58:20.325Z,88.41
2022-09-28T02:58:39.760Z,88.36
2022-09-28T02:59:10.190Z,87.89
2022-09-28T02:59:56.951Z,88.21
2022-09-28T03:00:14.732Z,88.03
2022-09-28T03:00:27.906Z,88.40
2022-09-28T03:00:51.717Z,88.47
2022-09-28T03:01:15.541Z,88.57
2022-09-28T03:01:38.621Z,88.78
2022-09-28T03:02:08.010Z,88.56
2022-09-28T03:02:32.268Z,88.76
2022-09-28T03:02:59.017Z,88.60
2022-09-28T03:03:24.845Z,89.01
2022-09-28T03:04:10.676Z,89.20
2022-09-28T03:04:33.378Z,89.84
2022-09-28T03:05:03.814Z,89.67
2022-09-28T03:05:32.419Z,89.79
2022-09-28T03:05:52.720Z,89.25
2022-09-28T03:06:32.153Z,89.06
2022-09-28T03:06:55.748Z,88.99
2022-09-28T03:07:16.147Z,89.38
2022-09-28T03:07:40.359Z,89.12
2022-09-28T03:07:59.577Z,89.67
2022-09-28T03:08:14.070Z,89.85
2022-09-28T03:08:40.852Z,89.51
2022-09-28T03:09:13.189Z,89.83
2022-09-28T03:09:33.618Z,89.70
2022-09-28T03:09:57.187Z,89.62
2022-09-28T03:10:48.542Z,89.59
2022-09-28T03:11:13.411Z,89.99
2022-09-28T03:11:35.400Z,90.13
2022-09-28T03:11:52.482Z,90.45
2022-09-28T03:12:13.286Z,90.17
2022-09-28T03:12:29.191Z,90.22
2022-09-28T03:12:42.269Z,90.54
2022-09-28T03:12:55.516Z,90.05
2022-09-28T03:13:08.643Z,90.09
2022-09-28T03:13:23.486Z,90.06
2022-09-28T03:13:35.907Z,90.41
2022-09-28T03:13:48.597Z,90.50
2022-09-28T03:14:01.930Z,90.60
2022-09-28T03:14:17.107Z,90.37
2022-09-28T03:14:29.002Z,90.00
2022-09-28T03:14:41.216Z,90.11
2022-09-28T03:15:11.077Z,90.40
2022-09-28T03:15:48.953Z,90.18
2022-09-28T03:16:16.318Z,89.89
2022-09-28T03:16:29.022Z,90.29
2022-09-28T03:16:45.136Z,90.10
2022-09-28T03:16:57.128Z,89.86
2022-09-28T03:17:09.025Z,90.00
2022-09-28T03:17:22.259Z,89.54
2022-09-28T03:17:34.145Z,89.74
2022-09-28T03:17:46.693Z,90.07
2022-09-28T03:17:59.085Z,89.85
2022-09-28T03:18:11.120Z,89.92
2022-09-28T03:18:23.018Z,89.84
2022-09-28T03:18:34.920Z,90.10
2022-09-28T03:18:49.768Z,90.14
2022-09-28T03:19:01.719Z,89.70
2022-09-28T03:19:15.955Z,90.09
2022-09-28T03:19:33.933Z,89.88
2022-09-28T03:19:45.808Z,89.86
2022-09-28T03:19:57.679Z,90.00
2022-09-28T03:20:12.022Z,90.46
2022-09-28T03:20:24.459Z,90.52
2022-09-28T03:20:37.206Z,90.32
2022-09-28T03:20:52.318Z,90.36
2022-09-28T03:21:05.392Z,90.17
2022-09-28T03:21:23.296Z,90.18
2022-09-28T03:21:35.213Z,90.53
2022-09-28T03:21:47.095Z,90.38
2022-09-28T03:21:59.552Z,90.17
2022-09-28T03:22:11.422Z,90.23
2022-09-28T03:22:23.320Z,90.45
2022-09-28T03:22:35.200Z,90.48
2022-09-28T03:23:06.003Z,90.23
2022-09-28T03:23:26.126Z,90.32
2022-09-28T03:23:39.843Z,90.33
2022-09-28T03:23:51.740Z,90.56
2022-09-28T03:24:15.285Z,90.45
2022-09-28T03:24:27.369Z,90.55
2022-09-28T03:24:42.019Z,90.54
2022-09-28T03:24:56.449Z,90.78
2022-09-28T03:25:08.686Z,90.73
2022-09-28T03:25:20.612Z,90.71
2022-09-28T03:25:32.504Z,90.47
2022-09-28T03:25:44.371Z,90.48
2022-09-28T03:25:56.860Z,90.57
2022-09-28T03:26:11.145Z,90.50
2022-09-28T03:26:23.017Z,90.52
2022-09-28T03:26:43.742Z,90.46
2022-09-28T03:26:57.549Z,90.33
2022-09-28T03:27:09.436Z,90.29
2022-09-28T03:27:21.789Z,90.62
2022-09-28T03:27:33.687Z,90.48
2022-09-28T03:27:47.050Z,90.99
2022-09-28T03:27:59.063Z,90.82
2022-09-28T03:28:10.943Z,90.75
2022-09-28T03:28:23.181Z,91.02
2022-09-28T03:28:36.190Z,91.03
2022-09-28T03:28:48.058Z,90.98
2022-09-28T03:28:59.944Z,91.07
2022-09-28T03:29:15.025Z,91.03
2022-09-28T03:29:27.077Z,90.98
2022-09-28T03:29:40.544Z,91.06
2022-09-28T03:29:52.428Z,90.68
2022-09-28T03:30:05.395Z,91.19
2022-09-28T03:30:17.757Z,91.01
2022-09-28T03:30:29.659Z,90.66
2022-09-28T03:30:43.353Z,91.07
2022-09-28T03:30:56.070Z,91.01
2022-09-28T03:31:08.184Z,91.27
2022-09-28T03:31:20.161Z,91.05
2022-09-28T03:31:35.078Z,91.60
2022-09-28T03:31:48.488Z,90.89
2022-09-28T03:32:00.602Z,90.90
2022-09-28T03:32:12.478Z,91.05
2022-09-28T03:32:29.417Z,91.36
2022-09-28T03:32:42.632Z,91.19
2022-09-28T03:32:59.257Z,90.99
2022-09-28T03:33:12.108Z,90.83
2022-09-28T03:33:24.040Z,91.48
2022-09-28T03:33:35.959Z,91.04
2022-09-28T03:33:47.841Z,91.07
2022-09-28T03:33:59.745Z,90.75
2022-09-28T03:34:11.687Z,90.75
2022-09-28T03:34:23.555Z,90.42
2022-09-28T03:34:35.626Z,90.64
2022-09-28T03:34:47.517Z,90.47
2022-09-28T03:34:59.395Z,90.85
2022-09-28T03:35:11.317Z,91.04
2022-09-28T03:35:23.179Z,90.75
2022-09-28T03:35:35.051Z,91.33
2022-09-28T03:35:48.309Z,90.88
2022-09-28T03:36:00.347Z,90.94
2022-09-28T03:36:14.539Z,90.99
2022-09-28T03:36:26.482Z,90.93
2022-09-28T03:36:38.395Z,91.08
2022-09-28T03:36:50.247Z,90.83
2022-09-28T03:37:02.160Z,91.18
2022-09-28T03:37:14.045Z,90.91
2022-09-28T03:37:27.404Z,90.70
2022-09-28T03:37:39.349Z,90.98
2022-09-28T03:37:54.803Z,91.27
2022-09-28T03:38:06.711Z,91.13
2022-09-28T03:38:19.074Z,91.14
2022-09-28T03:38:30.954Z,90.55
2022-09-28T03:38:42.915Z,90.72
2022-09-28T03:38:56.072Z,90.93
2022-09-28T03:39:07.939Z,90.42
2022-09-28T03:39:19.820Z,90.77
2022-09-28T03:39:31.880Z,90.79
2022-09-28T03:39:43.768Z,90.83
2022-09-28T03:39:56.816Z,90.63
2022-09-28T03:40:09.127Z,90.95
2022-09-28T03:40:21.084Z,91.35
2022-09-28T03:40:33.087Z,91.45
2022-09-28T03:40:53.520Z,91.26
2022-09-28T03:41:05.717Z,91.50